createdAt,value
2023-01-19T00:00:07.712Z,7.13
2023-01-19T00:02:47.985Z,9.45
2023-01-19T00:05:43.755Z,11.02
2023-01-19T00:08:15.038Z,7.13
2023-01-19T00:10:58.490Z,8.10
2023-01-19T00:16:25.724Z,8.85
2023-01-19T00:18:54.748Z,11.63
2023-01-19T00:21:36.929Z,8.23
2023-01-19T00:24:09.854Z,9.20
2023-01-19T00:26:55.256Z,9.52
2023-01-19T00:29:25.788Z,9.18
2023-01-19T00:32:19.378Z,13.15
2023-01-19T00:34:53.627Z,4.70
2023-01-19T00:37:43.511Z,7.32
2023-01-19T00:40:38.104Z,8.02
2023-01-19T00:43:10.670Z,8.88
2023-01-19T00:45:49.330Z,6.35
2023-01-19T00:48:35.316Z,9.05
2023-01-19T00:51:11.626Z,7.32
2023-01-19T00:53:41.678Z,7.00
2023-01-19T00:56:12.879Z,7.85
2023-01-19T00:58:45.782Z,7.47
2023-01-19T01:01:15.698Z,6.82
2023-01-19T01:03:50.658Z,9.93
2023-01-19T01:06:40.216Z,8.50
2023-01-19T01:09:13.361Z,8.35
2023-01-19T01:11:58.666Z,9.50
2023-01-19T01:15:00.809Z,7.57
2023-01-19T01:17:25.091Z,11.18
2023-01-19T01:20:08.730Z,3.15
2023-01-19T01:22:43.026Z,11.68
2023-01-19T01:25:22.131Z,7.22
2023-01-19T01:27:53.358Z,7.90
2023-01-19T01:30:22.447Z,5.10
2023-01-19T01:32:52.922Z,5.00
2023-01-19T01:35:29.883Z,7.40
2023-01-19T01:38:03.081Z,13.57
2023-01-19T01:41:12.727Z,10.45
2023-01-19T01:43:58.836Z,10.20
2023-01-19T01:46:45.858Z,8.18
2023-01-19T01:49:31.406Z,9.60
2023-01-19T01:52:15.879Z,9.00
2023-01-19T01:54:56.998Z,9.02
2023-01-19T01:59:08.321Z,3.85
2023-01-19T02:01:04.187Z,10.07
2023-01-19T02:03:41.923Z,7.15
2023-01-19T02:06:20.526Z,7.95
2023-01-19T02:09:26.922Z,9.32
2023-01-19T02:12:22.201Z,8.93
2023-01-19T02:15:07.826Z,8.88
2023-01-19T02:17:35.881Z,6.60
2023-01-19T02:20:37.309Z,10.32
2023-01-19T02:23:26.106Z,7.63
2023-01-19T02:26:15.889Z,11.27
2023-01-19T02:28:56.951Z,7.45
2023-01-19T02:31:37.312Z,6.85
2023-01-19T02:34:21.734Z,3.60
2023-01-19T02:37:17.437Z,5.20
2023-01-19T02:39:53.404Z,7.28
2023-01-19T02:42:46.646Z,10.18
2023-01-19T02:45:20.575Z,6.50
2023-01-19T02:48:03.030Z,11.88
2023-01-19T02:50:54.762Z,16.38
2023-01-19T02:53:41.317Z,9.27
2023-01-19T02:56:12.249Z,10.88
2023-01-19T03:01:50.703Z,10.88
2023-01-19T03:04:44.298Z,15.95
2023-01-19T03:09:45.623Z,19.48
2023-01-19T03:12:55.459Z,10.38
2023-01-19T03:15:48.328Z,17.48
2023-01-19T03:18:26.415Z,9.40
2023-01-19T03:21:09.925Z,12.77
2023-01-19T03:23:42.258Z,8.02
2023-01-19T03:26:14.459Z,14.07
2023-01-19T03:29:01.708Z,6.10
2023-01-19T03:31:51.786Z,11.05
2023-01-19T03:34:34.353Z,12.73
2023-01-19T03:37:32.235Z,9.55
2023-01-19T03:40:07.436Z,10.13
2023-01-19T03:42:37.401Z,6.82
2023-01-19T03:45:18.966Z,10.95
2023-01-19T03:48:07.139Z,4.07
2023-01-19T03:50:46.445Z,8.05
2023-01-19T03:53:21.370Z,10.35
2023-01-19T03:56:01.790Z,13.48
2023-01-19T03:58:33.000Z,10.77
2023-01-19T04:01:20.847Z,7.60
2023-01-19T04:03:55.078Z,9.95
2023-01-19T04:06:26.871Z,15.70
2023-01-19T04:09:13.927Z,13.02
2023-01-19T04:11:41.740Z,10.43
2023-01-19T04:14:42.955Z,10.43
2023-01-19T04:17:14.257Z,9.52
2023-01-19T04:19:58.545Z,22.60
2023-01-19T04:22:26.167Z,11.20
2023-01-19T04:25:01.632Z,8.32
2023-01-19T04:27:40.499Z,16.02
2023-01-19T04:30:23.315Z,6.97
2023-01-19T04:34:46.182Z,10.32
2023-01-19T04:36:04.200Z,10.50
2023-01-19T04:38:47.953Z,9.20
2023-01-19T04:41:19.945Z,8.23
2023-01-19T04:43:50.162Z,12.23
2023-01-19T04:48:51.550Z,12.02
2023-01-19T04:51:26.607Z,10.40
2023-01-19T04:53:57.970Z,19.35
2023-01-19T04:56:37.255Z,10.75
2023-01-19T04:59:12.309Z,10.60
2023-01-19T05:01:47.851Z,7.53
2023-01-19T05:04:30.322Z,5.70
2023-01-19T05:07:01.717Z,10.77
2023-01-19T05:09:31.775Z,8.60
2023-01-19T05:12:03.340Z,9.48
2023-01-19T05:14:33.646Z,7.55
2023-01-19T05:17:06.471Z,11.85
2023-01-19T05:19:57.217Z,19.52
2023-01-19T05:22:37.990Z,16.63
2023-01-19T05:25:14.216Z,15.05
2023-01-19T05:27:44.863Z,17.95
2023-01-19T05:30:15.691Z,12.30
2023-01-19T05:32:43.573Z,23.23
2023-01-19T05:35:18.305Z,9.98
2023-01-19T05:37:58.328Z,18.98
2023-01-19T05:40:28.289Z,10.45
2023-01-19T05:43:00.097Z,9.23
2023-01-19T05:45:28.565Z,12.93
2023-01-19T05:47:56.259Z,9.50
2023-01-19T05:50:39.794Z,23.92
2023-01-19T05:55:54.265Z,13.32
2023-01-19T05:58:27.260Z,18.38
2023-01-19T06:00:57.580Z,20.98
2023-01-19T06:03:38.778Z,19.50
2023-01-19T06:06:17.481Z,17.88
2023-01-19T06:08:50.262Z,22.23
2023-01-19T06:11:25.277Z,22.60
2023-01-19T06:13:53.243Z,16.35
2023-01-19T06:16:31.864Z,17.67
2023-01-19T06:19:03.203Z,15.98
2023-01-19T06:21:38.115Z,22.17
2023-01-19T06:24:08.328Z,21.85
2023-01-19T06:26:47.585Z,19.25
2023-01-19T06:29:28.750Z,25.05
2023-01-19T06:32:04.579Z,22.02
2023-01-19T06:34:42.929Z,21.40
2023-01-19T06:37:32.230Z,19.50
2023-01-19T06:40:07.547Z,19.25
2023-01-19T06:42:38.662Z,26.25
2023-01-19T06:45:32.679Z,22.50
2023-01-19T06:48:07.897Z,22.13
2023-01-19T06:51:10.524Z,21.38
2023-01-19T06:53:45.736Z,14.75
2023-01-19T06:56:30.645Z,22.92
2023-01-19T06:59:19.854Z,18.63
2023-01-19T07:02:27.570Z,30.02
2023-01-19T07:05:01.619Z,22.08
2023-01-19T07:07:43.879Z,31.85
2023-01-19T07:10:14.701Z,24.52
2023-01-19T07:12:56.332Z,23.35
2023-01-19T07:15:35.630Z,18.33
2023-01-19T07:18:21.290Z,27.17
2023-01-19T07:20:52.480Z,22.92
2023-01-19T07:24:11.140Z,19.65
2023-01-19T07:26:28.131Z,21.63
2023-01-19T07:28:58.764Z,23.83
2023-01-19T07:31:33.880Z,25.63
2023-01-19T07:34:04.841Z,15.00
2023-01-19T07:36:46.864Z,26.73
2023-01-19T07:39:32.264Z,20.30
2023-01-19T07:42:31.226Z,24.23
2023-01-19T07:45:30.857Z,19.65
2023-01-19T07:48:09.801Z,25.90
2023-01-19T07:50:37.504Z,30.02
2023-01-19T07:53:07.977Z,27.33
2023-01-19T07:55:37.960Z,26.45
2023-01-19T07:58:16.268Z,24.92
2023-01-19T08:00:49.271Z,23.25
2023-01-19T08:03:24.786Z,24.63
2023-01-19T08:05:56.288Z,25.00
2023-01-19T08:08:33.059Z,31.70
2023-01-19T08:11:08.880Z,20.90
2023-01-19T08:13:39.215Z,26.60
2023-01-19T08:16:40.212Z,27.33
2023-01-19T08:19:28.775Z,25.10
2023-01-19T08:22:03.529Z,18.90
2023-01-19T08:24:39.865Z,15.23
2023-01-19T08:27:38.832Z,14.55
2023-01-19T08:30:11.242Z,14.70
2023-01-19T08:32:44.977Z,13.10
2023-01-19T08:35:18.846Z,8.63
2023-01-19T08:37:46.586Z,17.52
2023-01-19T08:40:28.955Z,16.27
2023-01-19T08:43:15.384Z,11.02
2023-01-19T08:45:59.754Z,14.60
2023-01-19T08:49:02.547Z,12.05
2023-01-19T08:51:47.086Z,10.63
2023-01-19T08:54:26.080Z,19.67
2023-01-19T08:56:54.428Z,16.90
2023-01-19T08:59:22.533Z,14.55
2023-01-19T09:02:05.903Z,13.63
2023-01-19T09:04:49.593Z,13.95
2023-01-19T09:07:35.704Z,24.42
2023-01-19T09:10:16.426Z,8.68
2023-01-19T09:12:50.487Z,12.75
2023-01-19T09:15:57.242Z,16.60
2023-01-19T09:18:35.791Z,14.45
2023-01-19T09:21:17.391Z,10.93
2023-01-19T09:26:40.989Z,16.00
2023-01-19T09:29:43.493Z,23.58
2023-01-19T09:32:20.291Z,18.05
2023-01-19T09:35:05.673Z,24.40
2023-01-19T09:37:37.844Z,24.48
2023-01-19T09:40:25.108Z,16.17
2023-01-19T09:43:27.116Z,21.40
2023-01-19T09:46:07.035Z,16.10
2023-01-19T09:49:38.190Z,19.13
2023-01-19T09:51:46.985Z,13.60
2023-01-19T09:54:45.511Z,17.08
2023-01-19T09:57:30.675Z,21.80
2023-01-19T10:00:07.059Z,21.17
2023-01-19T10:02:46.810Z,18.25
2023-01-19T10:05:26.595Z,11.90
2023-01-19T10:08:06.329Z,16.42
2023-01-19T10:10:35.164Z,21.30
2023-01-19T10:13:31.172Z,18.00
2023-01-19T10:16:01.197Z,18.70
2023-01-19T10:19:22.212Z,20.48
2023-01-19T10:22:04.303Z,10.43
2023-01-19T10:25:06.332Z,14.98
2023-01-19T10:28:06.035Z,13.82
2023-01-19T10:30:33.941Z,11.27
2023-01-19T10:33:17.113Z,12.70
2023-01-19T10:35:53.422Z,7.25
2023-01-19T10:38:39.854Z,12.13
2023-01-19T10:41:24.353Z,10.07
2023-01-19T10:44:02.848Z,11.43
2023-01-19T10:46:49.673Z,13.80
2023-01-19T10:49:28.521Z,10.48
2023-01-19T10:52:00.087Z,11.77
2023-01-19T10:54:37.797Z,11.25
2023-01-19T10:57:26.546Z,8.23
2023-01-19T10:59:54.454Z,6.53
2023-01-19T11:02:35.179Z,9.77
2023-01-19T11:05:37.446Z,8.90
2023-01-19T11:08:22.321Z,11.48
2023-01-19T11:11:04.203Z,39.08
2023-01-19T11:13:34.790Z,14.27
2023-01-19T11:16:16.084Z,26.35
2023-01-19T11:18:44.134Z,11.55
2023-01-19T11:21:16.306Z,16.55
2023-01-19T11:23:51.257Z,8.70
2023-01-19T11:26:35.707Z,13.70
2023-01-19T11:29:04.855Z,13.27
2023-01-19T11:31:36.049Z,13.63
2023-01-19T11:34:05.318Z,16.77
2023-01-19T11:36:34.492Z,9.07
2023-01-19T11:39:13.223Z,9.48
2023-01-19T11:41:41.821Z,11.07
2023-01-19T11:44:12.147Z,10.85
2023-01-19T11:46:42.071Z,13.35
2023-01-19T11:49:16.303Z,7.63
2023-01-19T11:51:56.055Z,15.35
2023-01-19T11:54:28.490Z,12.35
2023-01-19T11:56:59.091Z,9.70
2023-01-19T11:59:29.628Z,17.30
2023-01-19T12:02:00.172Z,8.35
2023-01-19T12:04:37.433Z,10.60
2023-01-19T12:07:10.782Z,10.02
2023-01-19T12:09:51.015Z,15.60
2023-01-19T12:12:31.138Z,5.82
2023-01-19T12:14:58.738Z,7.63
2023-01-19T12:17:41.482Z,14.57
2023-01-19T12:20:21.287Z,9.68
2023-01-19T12:22:57.598Z,9.10
2023-01-19T12:25:30.772Z,10.00
2023-01-19T12:27:59.458Z,16.27
2023-01-19T12:30:28.943Z,29.92
2023-01-19T12:33:18.517Z,15.73
2023-01-19T12:36:03.949Z,15.07
2023-01-19T12:38:43.359Z,10.60
2023-01-19T12:41:53.377Z,13.55
2023-01-19T12:44:23.148Z,11.35
2023-01-19T12:47:21.536Z,7.82
2023-01-19T12:50:05.731Z,12.20
2023-01-19T12:52:49.658Z,11.95
2023-01-19T12:55:25.952Z,11.82
2023-01-19T12:57:59.051Z,9.23
2023-01-19T13:03:17.508Z,16.65
2023-01-19T13:05:55.192Z,11.68
2023-01-19T13:08:56.909Z,6.07
2023-01-19T13:11:34.349Z,4.57
2023-01-19T13:15:04.831Z,6.10
2023-01-19T13:17:22.069Z,5.78
2023-01-19T13:20:24.366Z,6.50
2023-01-19T13:23:34.233Z,12.10
2023-01-19T13:26:18.211Z,10.70
2023-01-19T13:29:03.587Z,6.07
2023-01-19T13:34:29.827Z,5.75
2023-01-19T13:37:04.342Z,9.90
2023-01-19T13:39:37.939Z,10.50
2023-01-19T13:42:20.309Z,11.65
2023-01-19T13:45:00.811Z,11.45
2023-01-19T13:47:45.803Z,10.48
2023-01-19T13:51:01.132Z,12.23
2023-01-19T13:53:37.399Z,8.57
2023-01-19T13:56:34.120Z,8.27
2023-01-19T13:59:08.361Z,9.65
2023-01-19T14:01:46.597Z,6.80
2023-01-19T14:04:31.448Z,6.75
2023-01-19T14:10:01.947Z,3.90
2023-01-19T14:12:30.102Z,3.08
2023-01-19T14:14:57.926Z,3.13
2023-01-19T14:17:29.620Z,3.92
2023-01-19T14:19:58.537Z,1.42
2023-01-19T14:22:38.844Z,10.27
2023-01-19T14:25:27.703Z,7.68
2023-01-19T14:28:14.108Z,5.25
2023-01-19T14:30:53.499Z,3.40
2023-01-19T14:33:41.974Z,5.43
2023-01-19T14:36:30.123Z,3.72
2023-01-19T14:38:59.799Z,5.90
2023-01-19T14:41:30.369Z,5.20
2023-01-19T14:43:59.241Z,4.18
2023-01-19T14:46:27.213Z,10.23
2023-01-19T14:48:59.148Z,8.40
2023-01-19T14:51:27.521Z,6.00
2023-01-19T14:53:58.561Z,7.88
2023-01-19T14:56:28.401Z,7.05
2023-01-19T14:58:57.360Z,3.15
2023-01-19T15:01:28.519Z,5.70
2023-01-19T15:03:59.135Z,11.85
2023-01-19T15:06:27.281Z,5.18
2023-01-19T15:08:55.937Z,6.45
2023-01-19T15:11:25.700Z,5.38
2023-01-19T15:13:54.373Z,17.20
2023-01-19T15:16:24.284Z,6.68
2023-01-19T15:18:52.207Z,13.65
2023-01-19T15:21:21.821Z,9.98
2023-01-19T15:23:50.031Z,8.48
2023-01-19T15:26:19.002Z,6.00
2023-01-19T15:28:47.060Z,2.65
2023-01-19T15:31:16.489Z,3.40
2023-01-19T15:33:44.331Z,1.33
2023-01-19T15:36:17.850Z,4.78
2023-01-19T15:38:46.110Z,1.75
2023-01-19T15:41:26.464Z,6.47
2023-01-19T15:43:54.584Z,9.25
2023-01-19T15:46:22.905Z,12.07
2023-01-19T15:48:51.100Z,14.80
2023-01-19T15:51:20.352Z,10.63
2023-01-19T15:53:48.231Z,9.85
2023-01-19T15:56:20.857Z,5.80
2023-01-19T15:58:48.768Z,6.20
2023-01-19T16:01:18.163Z,11.43
2023-01-19T16:03:46.207Z,4.75
2023-01-19T16:06:16.322Z,8.18
2023-01-19T16:08:44.395Z,8.20
2023-01-19T16:11:13.565Z,7.53
2023-01-19T16:13:41.289Z,7.95
2023-01-19T16:16:13.284Z,5.00
2023-01-19T16:18:41.050Z,7.15
2023-01-19T16:21:08.907Z,6.97
2023-01-19T16:23:36.975Z,4.15
2023-01-19T16:26:08.351Z,2.97
2023-01-19T16:28:36.788Z,4.07
2023-01-19T16:31:04.823Z,9.02
2023-01-19T16:33:32.652Z,4.97
2023-01-19T16:36:00.350Z,2.65
2023-01-19T16:38:27.945Z,7.90
2023-01-19T16:40:55.537Z,3.47
2023-01-19T16:43:23.125Z,2.65
2023-01-19T16:45:58.778Z,2.58
2023-01-19T16:48:26.777Z,2.78
2023-01-19T16:51:02.099Z,1.92
2023-01-19T16:53:30.147Z,2.45
2023-01-19T16:55:57.874Z,0.80
2023-01-19T16:58:25.457Z,3.00
2023-01-19T17:00:53.185Z,2.63
2023-01-19T17:03:21.004Z,2.22
2023-01-19T17:05:49.606Z,2.47
2023-01-19T17:08:19.107Z,2.00
2023-01-19T17:10:47.563Z,1.95
2023-01-19T17:13:15.304Z,0.90
2023-01-19T17:15:43.956Z,1.30
2023-01-19T17:18:15.168Z,3.50
2023-01-19T17:20:42.831Z,1.88
2023-01-19T17:23:10.565Z,0.73
2023-01-19T17:25:38.201Z,1.65
2023-01-19T17:28:05.813Z,2.92
2023-01-19T17:30:33.978Z,3.42
2023-01-19T17:33:01.817Z,2.85
2023-01-19T17:35:29.543Z,0.98
2023-01-19T17:37:57.341Z,0.82
2023-01-19T17:40:26.229Z,4.13
2023-01-19T17:42:56.646Z,6.10
2023-01-19T17:45:24.330Z,3.40
2023-01-19T17:47:52.111Z,3.25
2023-01-19T17:50:19.906Z,2.72
2023-01-19T17:52:47.854Z,2.78
2023-01-19T17:55:18.653Z,1.60
2023-01-19T17:58:17.309Z,4.45
2023-01-19T18:01:47.601Z,1.75
2023-01-19T18:03:40.980Z,1.85
2023-01-19T18:06:13.425Z,3.90
2023-01-19T18:08:53.819Z,5.57
2023-01-19T18:11:22.358Z,5.30
2023-01-19T18:14:07.826Z,4.57
2023-01-19T18:16:47.860Z,3.25
2023-01-19T18:19:24.363Z,3.00
2023-01-19T18:21:56.259Z,3.72
2023-01-19T18:24:24.188Z,3.45
2023-01-19T18:26:59.426Z,3.20
2023-01-19T18:29:39.796Z,4.70
2023-01-19T18:32:10.684Z,8.15
2023-01-19T18:34:58.528Z,4.55
2023-01-19T18:40:36.497Z,4.68
2023-01-19T18:43:10.869Z,4.55
2023-01-19T18:45:50.293Z,7.82
2023-01-19T18:48:41.427Z,5.72
2023-01-19T18:51:14.417Z,4.70
2023-01-19T18:54:01.027Z,8.82
2023-01-19T19:00:07.260Z,6.45
2023-01-19T19:02:39.590Z,5.88
2023-01-19T19:05:21.223Z,5.55
2023-01-19T19:07:59.293Z,8.27
2023-01-19T19:10:32.395Z,4.70
2023-01-19T19:13:12.531Z,5.57
2023-01-19T19:16:16.272Z,4.57
2023-01-19T19:19:02.056Z,8.00
2023-01-19T19:21:32.451Z,6.88
2023-01-19T19:24:05.069Z,3.05
2023-01-19T19:26:43.117Z,5.07
2023-01-19T19:29:35.046Z,4.43
2023-01-19T19:32:18.284Z,5.63
2023-01-19T19:35:13.140Z,5.25
2023-01-19T19:37:43.691Z,4.43
2023-01-19T19:40:19.267Z,2.13
2023-01-19T19:43:15.420Z,5.80
2023-01-19T19:48:38.191Z,3.97
2023-01-19T19:51:17.529Z,8.25
2023-01-19T19:53:59.467Z,3.55
2023-01-19T19:56:37.252Z,3.28
2023-01-19T19:59:17.602Z,0.68
2023-01-19T20:01:59.143Z,1.85
2023-01-19T20:04:37.725Z,1.48
2023-01-19T20:07:08.561Z,1.90
2023-01-19T20:09:45.510Z,0.68
2023-01-19T20:12:18.858Z,2.00
2023-01-19T20:14:59.360Z,1.30
2023-01-19T20:20:38.454Z,3.92
2023-01-19T20:23:33.933Z,2.33
2023-01-19T20:26:14.502Z,1.55
2023-01-19T20:31:31.885Z,2.78
2023-01-19T20:34:20.708Z,5.57
2023-01-19T20:37:16.385Z,3.92
2023-01-19T20:39:49.393Z,1.73
2023-01-19T20:42:23.266Z,4.57
2023-01-19T20:45:04.400Z,2.67
2023-01-19T20:47:56.257Z,2.50
2023-01-19T20:50:30.357Z,1.85
2023-01-19T20:53:20.701Z,3.63
2023-01-19T20:56:15.645Z,3.25
2023-01-19T20:58:57.638Z,2.08
2023-01-19T21:01:30.803Z,1.58
2023-01-19T21:06:38.448Z,5.28
2023-01-19T21:09:34.751Z,3.55
2023-01-19T21:12:20.801Z,5.07
2023-01-19T21:14:52.410Z,5.07
2023-01-19T21:17:25.245Z,7.10
2023-01-19T21:20:19.056Z,2.38
2023-01-19T21:22:53.571Z,7.80
2023-01-19T21:25:24.484Z,5.30
2023-01-19T21:28:15.367Z,4.20
2023-01-19T21:30:49.222Z,3.95
2023-01-19T21:33:29.132Z,3.30
2023-01-19T21:36:26.356Z,7.95
2023-01-19T21:39:00.849Z,4.20
2023-01-19T21:41:38.753Z,5.85
2023-01-19T21:44:34.460Z,5.68
2023-01-19T21:47:11.958Z,2.90
2023-01-19T21:49:54.124Z,9.40
2023-01-19T21:52:49.316Z,8.00
2023-01-19T21:55:34.870Z,13.23
2023-01-19T21:58:07.334Z,5.07
2023-01-19T22:00:50.686Z,7.78
2023-01-19T22:03:23.923Z,5.55
2023-01-19T22:06:08.961Z,4.18
2023-01-19T22:08:48.610Z,3.45
2023-01-19T22:11:22.860Z,4.45
2023-01-19T22:13:57.703Z,8.23
2023-01-19T22:16:31.528Z,6.95
2023-01-19T22:19:08.239Z,5.43
2023-01-19T22:21:54.863Z,8.20
2023-01-19T22:24:25.250Z,7.43
2023-01-19T22:27:35.271Z,5.70
2023-01-19T22:30:31.538Z,8.18
2023-01-19T22:33:05.617Z,6.20
2023-01-19T22:35:53.774Z,3.92
2023-01-19T22:38:30.887Z,4.55
2023-01-19T22:41:36.049Z,4.15
2023-01-19T22:44:13.258Z,4.25
2023-01-19T22:46:47.413Z,3.80
2023-01-19T22:49:26.111Z,3.83
2023-01-19T22:52:09.083Z,5.85
2023-01-19T22:54:47.921Z,8.88
2023-01-19T22:57:37.192Z,3.90
2023-01-19T23:00:13.973Z,2.42
2023-01-19T23:03:00.191Z,4.43
2023-01-19T23:05:40.967Z,3.20
2023-01-19T23:08:39.372Z,2.63
2023-01-19T23:11:29.671Z,3.60
2023-01-19T23:14:09.753Z,1.40
2023-01-19T23:16:48.577Z,4.63
2023-01-19T23:19:50.146Z,2.67
2023-01-19T23:22:20.451Z,6.07
2023-01-19T23:24:53.232Z,4.13
2023-01-19T23:27:27.959Z,4.53
2023-01-19T23:30:13.351Z,4.25
2023-01-19T23:32:44.483Z,4.93
2023-01-19T23:35:17.251Z,4.10
2023-01-19T23:37:59.117Z,8.25
2023-01-19T23:40:57.147Z,5.93
2023-01-19T23:43:37.124Z,7.13
2023-01-19T23:46:25.933Z,8.23
2023-01-19T23:48:56.112Z,4.72
2023-01-19T23:53:55.025Z,5.30
2023-01-19T23:56:32.977Z,4.40
2023-01-19T23:59:04.943Z,5.18
